地図

経路データ

SID SEASON NUMBER BASIN SUBBASIN NAME ISO_TIME NATURE LAT LON WMO_WIND WMO_PRES WMO_AGENCY TRACK_TYPE DIST2LAND LANDFALL IFLAG USA_AGENCY USA_ATCF_ID USA_LAT USA_LON USA_RECORD USA_STATUS USA_WIND USA_PRES USA_SSHS USA_R34_NE USA_R34_SE USA_R34_SW USA_R34_NW USA_R50_NE USA_R50_SE USA_R50_SW USA_R50_NW USA_R64_NE USA_R64_SE USA_R64_SW USA_R64_NW USA_POCI USA_ROCI USA_RMW USA_EYE TOKYO_LAT TOKYO_LON TOKYO_GRADE TOKYO_WIND TOKYO_PRES TOKYO_R50_DIR TOKYO_R50_LONG TOKYO_R50_SHORT TOKYO_R30_DIR TOKYO_R30_LONG TOKYO_R30_SHORT TOKYO_LAND CMA_LAT CMA_LON CMA_CAT CMA_WIND CMA_PRES HKO_LAT HKO_LON HKO_CAT HKO_WIND HKO_PRES NEWDELHI_LAT NEWDELHI_LON NEWDELHI_GRADE NEWDELHI_WIND NEWDELHI_PRES NEWDELHI_CI NEWDELHI_DP NEWDELHI_POCI REUNION_LAT REUNION_LON REUNION_TYPE REUNION_WIND REUNION_PRES REUNION_TNUM REUNION_CI REUNION_RMW REUNION_R34_NE REUNION_R34_SE REUNION_R34_SW REUNION_R34_NW REUNION_R50_NE REUNION_R50_SE REUNION_R50_SW REUNION_R50_NW REUNION_R64_NE REUNION_R64_SE REUNION_R64_SW REUNION_R64_NW BOM_LAT BOM_LON BOM_TYPE BOM_WIND BOM_PRES BOM_TNUM BOM_CI BOM_RMW BOM_R34_NE BOM_R34_SE BOM_R34_SW BOM_R34_NW BOM_R50_NE BOM_R50_SE BOM_R50_SW BOM_R50_NW BOM_R64_NE BOM_R64_SE BOM_R64_SW BOM_R64_NW BOM_ROCI BOM_POCI BOM_EYE BOM_POS_METHOD BOM_PRES_METHOD NADI_LAT NADI_LON NADI_CAT NADI_WIND NADI_PRES WELLINGTON_LAT WELLINGTON_LON WELLINGTON_WIND WELLINGTON_PRES DS824_LAT DS824_LON DS824_STAGE DS824_WIND DS824_PRES TD9636_LAT TD9636_LON TD9636_STAGE TD9636_WIND TD9636_PRES TD9635_LAT TD9635_LON TD9635_WIND TD9635_PRES TD9635_ROCI NEUMANN_LAT NEUMANN_LON NEUMANN_CLASS NEUMANN_WIND NEUMANN_PRES MLC_LAT MLC_LON MLC_CLASS MLC_WIND MLC_PRES USA_GUST BOM_GUST BOM_GUST_PER REUNION_GUST REUNION_GUST_PER USA_SEAHGT USA_SEARAD_NE USA_SEARAD_SE USA_SEARAD_SW USA_SEARAD_NW STORM_SPEED STORM_DIR
1901295N14134 1901 41 WP MM NOT_NAMED 1901-10-21 16:00:00 NR 13.9000 133.500 main 887 680 __________O___ -1 13.9000 133.500 7 58 274
1901295N14134 1901 41 WP MM NOT_NAMED 1901-10-21 18:00:00 NR 14.0488 131.510 main 680 403 __________P___ -1 14.0488 131.510 7 57 274
1901295N14134 1901 41 WP MM NOT_NAMED 1901-10-21 21:00:00 NR 14.2360 128.634 main 403 191 __________P___ -1 14.2360 128.634 7 53 274
1901295N14134 1901 41 WP MM NOT_NAMED 1901-10-22 00:00:00 NR 14.3767 126.075 main 191 55 __________P___ -1 14.3767 126.075 7 45 273
1901295N14134 1901 41 WP MM NOT_NAMED 1901-10-22 03:00:00 NR 14.4751 124.033 main 57 59 __________P___ -1 14.4751 124.033 7 37 273
1901295N14134 1901 41 WP MM NOT_NAMED 1901-10-22 04:00:00 NR 14.5000 123.500 main 59 33 __________O___ -1 14.5000 123.500 3 26 273
1901295N14134 1901 41 WP MM NOT_NAMED 1901-10-22 06:00:00 NR 14.5407 122.676 main 33 24 __________P___ -1 14.5407 122.676 3 18 273
1901295N14134 1901 41 WP MM NOT_NAMED 1901-10-22 09:00:00 NR 14.5888 121.925 main 24 0 __________P___ -1 14.5888 121.925 3 11 275
1901295N14134 1901 41 WP MM NOT_NAMED 1901-10-22 12:00:00 NR 14.6327 121.543 main 0 0 __________P___ -1 14.6327 121.543 3 6 279
1901295N14134 1901 41 WP MM NOT_NAMED 1901-10-22 15:00:00 NR 14.6814 121.294 main 0 0 __________P___ -1 14.6814 121.294 3 5 281
1901295N14134 1901 41 WP MM NOT_NAMED 1901-10-22 16:00:00 NR 14.7000 121.200 main 0 0 __________O___ -1 14.7000 121.200 4 9 278
1901295N14134 1901 41 WP MM NOT_NAMED 1901-10-22 18:00:00 NR 14.7414 120.822 main 10 0 __________P___ -1 14.7414 120.822 4 11 277
1901295N14134 1901 41 WP MM NOT_NAMED 1901-10-22 21:00:00 NR 14.8100 120.262 main 0 0 __________P___ -1 14.8100 120.262 4 11 278
1901295N14134 1901 41 WP MM NOT_NAMED 1901-10-23 00:00:00 NR 14.8863 119.712 main 43 43 __________P___ -1 14.8863 119.712 4 11 279
1901295N14134 1901 41 WP MM NOT_NAMED 1901-10-23 03:00:00 NR 14.9703 119.175 main 87 96 __________P___ -1 14.9703 119.175 4 10 279
1901295N14134 1901 41 WP MM NOT_NAMED 1901-10-23 04:00:00 NR 15.0000 119.000 main 106 106 __________O___ -1 15.0000 119.000 4 10 281
1901295N14134 1901 41 WP MM NOT_NAMED 1901-10-23 06:00:00 NR 15.0685 118.655 main 133 143 __________P___ -1 15.0685 118.655 4 10 282
1901295N14134 1901 41 WP MM NOT_NAMED 1901-10-23 09:00:00 NR 15.1779 118.151 main 183 193 __________P___ -1 15.1779 118.151 4 10 283
1901295N14134 1901 41 WP MM NOT_NAMED 1901-10-23 12:00:00 NR 15.2844 117.656 main 228 238 __________P___ -1 15.2844 117.656 4 10 282
1901295N14134 1901 41 WP MM NOT_NAMED 1901-10-23 15:00:00 NR 15.3753 117.164 main 276 286 __________P___ -1 15.3753 117.164 4 10 280
1901295N14134 1901 41 WP MM NOT_NAMED 1901-10-23 16:00:00 NR 15.4000 117.000 main 296 296 __________O___ -1 15.4000 117.000 4 10 277
1901295N14134 1901 41 WP MM NOT_NAMED 1901-10-23 18:00:00 NR 15.4335 116.669 main 328 338 __________P___ -1 15.4335 116.669 4 10 275
1901295N14134 1901 41 WP MM NOT_NAMED 1901-10-23 21:00:00 NR 15.4650 116.173 main 378 389 __________P___ -1 15.4650 116.173 4 10 273
1901295N14134 1901 41 WP MM NOT_NAMED 1901-10-24 00:00:00 NR 15.4825 115.674 main 431 442 __________P___ -1 15.4825 115.674 4 10 272
1901295N14134 1901 41 WP MM NOT_NAMED 1901-10-24 03:00:00 NR 15.4952 115.170 main 484 495 __________P___ -1 15.4952 115.170 4 10 272
1901295N14134 1901 41 WP MM NOT_NAMED 1901-10-24 04:00:00 NR 15.5000 115.000 main 506 506 __________O___ -1 15.5000 115.000 4 10 273
1901295N14134 1901 41 WP MM NOT_NAMED 1901-10-24 06:00:00 NR 15.5217 114.656 main 538 523 __________P___ -1 15.5217 114.656 4 10 274
1901295N14134 1901 41 WP MM NOT_NAMED 1901-10-24 09:00:00 NR 15.5545 114.133 main 523 485 __________P___ -1 15.5545 114.133 4 10 273
1901295N14134 1901 41 WP MM NOT_NAMED 1901-10-24 12:00:00 NR 15.5821 113.606 main 485 441 __________P___ -1 15.5821 113.606 4 10 272
1901295N14134 1901 41 WP MM NOT_NAMED 1901-10-24 15:00:00 NR 15.5982 113.076 main 441 420 __________P___ -1 15.5982 113.076 4 10 272
1901295N14134 1901 41 WP MM NOT_NAMED 1901-10-24 16:00:00 NR 15.6000 112.900 main 420 378 __________O___ -1 15.6000 112.900 4 10 270
1901295N14134 1901 41 WP MM NOT_NAMED 1901-10-24 18:00:00 NR 15.5998 112.547 main 378 327 __________P___ -1 15.5998 112.547 4 10 269
1901295N14134 1901 41 WP MM NOT_NAMED 1901-10-24 21:00:00 NR 15.5871 112.018 main 327 276 __________P___ -1 15.5871 112.018 4 10 268
1901295N14134 1901 41 WP MM NOT_NAMED 1901-10-25 00:00:00 NR 15.5597 111.492 main 276 222 __________P___ -1 15.5597 111.492 4 10 266
1901295N14134 1901 41 WP MM NOT_NAMED 1901-10-25 03:00:00 NR 15.5174 110.972 main 222 203 __________P___ -1 15.5174 110.972 4 10 265
1901295N14134 1901 41 WP MM NOT_NAMED 1901-10-25 04:00:00 NR 15.5000 110.800 main 203 174 __________O___ -1 15.5000 110.800 4 10 262
1901295N14134 1901 41 WP MM NOT_NAMED 1901-10-25 06:00:00 NR 15.4507 110.453 main 174 109 __________P___ -1 15.4507 110.453 4 10 261
1901295N14134 1901 41 WP MM NOT_NAMED 1901-10-25 09:00:00 NR 15.3642 109.938 main 109 54 __________P___ -1 15.3642 109.938 4 10 260
1901295N14134 1901 41 WP MM NOT_NAMED 1901-10-25 12:00:00 NR 15.2790 109.437 main 54 10 __________P___ -1 15.2790 109.437 4 10 261
1901295N14134 1901 41 WP MM NOT_NAMED 1901-10-25 15:00:00 NR 15.2140 108.955 main 10 0 __________P___ -1 15.2140 108.955 4 9 263
1901295N14134 1901 41 WP MM NOT_NAMED 1901-10-25 16:00:00 NR 15.2000 108.800 main 0 0 __________O___ -1 15.2000 108.800 7 9 266
1901295N14134 1901 41 WP MM NOT_NAMED 1901-10-25 18:00:00 NR 15.1863 108.498 main 0 0 __________P___ -1 15.1863 108.498 7 9 270
1901295N14134 1901 41 WP MM NOT_NAMED 1901-10-25 21:00:00 NR 15.1959 108.064 main 0 0 __________P___ -1 15.1959 108.064 7 8 273
1901295N14134 1901 41 WP MM NOT_NAMED 1901-10-26 00:00:00 NR 15.2316 107.645 main 0 0 __________P___ -1 15.2316 107.645 7 8 276
1901295N14134 1901 41 WP MM NOT_NAMED 1901-10-26 03:00:00 NR 15.2820 107.236 main 0 0 __________P___ -1 15.2820 107.236 7 8 277
1901295N14134 1901 41 WP MM NOT_NAMED 1901-10-26 04:00:00 NR 15.3000 107.100 main 0 __________O___ -1 15.3000 107.100 7 8 278

デジタル台風データ・検索

IBTrACS Databaseについて

本データベースは、米国NOAAが公開する1842年以降の世界の熱帯低気圧のベストトラックデータアーカイブInternational Best Track Archive for Climate Stewardship (IBTrACS)を、ウェブで閲覧しやすい形式に変換したものです。

最終更新日:2021-11-26